Time;durP1;ratioP1;P1;durP2;ratioP2;P2;SDS_P1;SDS_P2;PMS_P1;PMS_P2;Temp;Humidity;BMP_temperature;BMP_pressure;BME280_temperature;BME280_humidity;BME280_pressure;Samples;Min_cycle;Max_cycle;Signal;HPM_P1;HPM_P2
2022/10/30 00:00:49;;;;;;;12.00;3.92;;;;;;;18.08;89.18;101466.72;2096606;28;20036;-75
2022/10/30 00:02:11;;;;;;;15.43;4.03;;;;;;;18.05;89.56;101466.75;2097498;28;20056;-75
2022/10/30 00:03:34;;;;;;;15.13;4.82;;;;;;;18.02;89.64;101464.97;2102896;28;20413;-76
2022/10/30 00:04:58;;;;;;;11.65;4.25;;;;;;;18.00;89.95;101457.84;2104200;28;20055;-75
2022/10/30 00:06:19;;;;;;;15.63;4.70;;;;;;;17.99;90.21;101472.97;2097414;28;20085;-74
2022/10/30 00:07:42;;;;;;;12.18;3.95;;;;;;;17.99;90.28;101459.63;2094571;28;20139;-74
2022/10/30 00:09:05;;;;;;;15.95;4.70;;;;;;;18.00;90.14;101461.41;2090919;28;20041;-75
2022/10/30 00:10:26;;;;;;;11.13;4.20;;;;;;;18.00;90.12;101461.41;2096056;28;20102;-74
2022/10/30 00:11:50;;;;;;;12.80;4.75;;;;;;;18.01;89.71;101465.84;2089293;28;20057;-74
2022/10/30 00:13:12;;;;;;;9.35;4.47;;;;;;;18.05;89.39;101467.59;2086650;28;20052;-74
2022/10/30 00:14:35;;;;;;;16.52;4.07;;;;;;;18.08;89.04;101464.94;2086599;28;20181;-75
2022/10/30 00:15:57;;;;;;;12.98;4.25;;;;;;;18.08;88.76;101469.41;2094770;28;20056;-74
2022/10/30 00:17:18;;;;;;;13.73;3.85;;;;;;;18.07;88.74;101449.78;2093690;28;20040;-74
2022/10/30 00:18:42;;;;;;;12.98;4.93;;;;;;;18.05;88.54;101456.91;2094834;28;20469;-74
2022/10/30 00:20:07;;;;;;;16.08;4.35;;;;;;;18.04;88.52;101451.59;2104317;28;20406;-75
2022/10/30 00:21:29;;;;;;;17.33;4.75;;;;;;;18.02;88.69;101456.94;2097570;28;20044;-75
2022/10/30 00:22:50;;;;;;;10.85;3.75;;;;;;;18.00;88.58;101453.38;2101474;28;20047;-74
2022/10/30 00:24:13;;;;;;;14.43;4.90;;;;;;;17.99;88.81;101456.06;2089154;28;20143;-75
2022/10/30 00:25:35;;;;;;;16.98;4.03;;;;;;;17.98;88.68;101456.97;2079751;28;20051;-75
2022/10/30 00:26:58;;;;;;;8.90;3.42;;;;;;;17.99;88.75;101450.72;2085469;28;20504;-74
2022/10/30 00:28:19;;;;;;;14.23;4.25;;;;;;;18.00;88.50;101456.06;2086179;28;20086;-75
2022/10/30 00:29:42;;;;;;;13.75;4.43;;;;;;;18.01;88.48;101449.81;2099708;28;20051;-75
2022/10/30 00:31:05;;;;;;;10.93;4.18;;;;;;;18.03;88.50;101448.03;2088660;28;20247;-75
2022/10/30 00:32:27;;;;;;;13.02;4.15;;;;;;;18.04;88.38;101447.16;2092349;28;20044;-75
2022/10/30 00:33:50;;;;;;;14.60;4.57;;;;;;;18.06;88.52;101449.78;2086449;28;20045;-75
2022/10/30 00:35:15;;;;;;;10.70;3.85;;;;;;;18.06;88.17;101445.34;2083363;28;20148;-75
2022/10/30 00:36:37;;;;;;;13.98;4.13;;;;;;;18.08;88.00;101445.34;2084101;28;20045;-75
2022/10/30 00:37:59;;;;;;;11.00;3.95;;;;;;;18.08;88.27;101443.56;2088619;28;20071;-75
2022/10/30 00:39:22;;;;;;;19.27;4.20;;;;;;;18.09;88.41;101440.00;2085841;28;20041;-75
2022/10/30 00:40:45;;;;;;;18.58;4.55;;;;;;;18.09;88.37;101445.34;2078428;28;20141;-75
2022/10/30 00:42:12;;;;;;;12.50;4.45;;;;;;;18.08;88.91;101442.66;2078109;28;20508;-75
2022/10/30 00:43:35;;;;;;;12.68;4.50;;;;;;;18.07;89.00;101443.56;2088696;28;20067;-75
2022/10/30 00:44:58;;;;;;;11.70;4.25;;;;;;;18.05;89.11;101454.25;2089190;28;20479;-74
2022/10/30 00:46:25;;;;;;;8.60;4.15;;;;;;;18.03;89.27;101448.03;2095525;28;20490;-75
2022/10/30 00:47:53;;;;;;;15.65;4.05;;;;;;;18.02;89.44;101450.72;2101541;28;20040;-75
2022/10/30 00:49:16;;;;;;;14.75;4.07;;;;;;;17.98;89.72;101446.28;2095353;28;20099;-74
2022/10/30 00:50:40;;;;;;;12.45;3.90;;;;;;;17.93;90.09;101438.28;2109102;28;20071;-74
2022/10/30 00:52:04;;;;;;;13.30;4.50;;;;;;;17.89;90.34;101439.19;2096982;28;20083;-74
2022/10/30 00:53:28;;;;;;;10.82;3.75;;;;;;;17.84;90.57;101435.66;2094138;28;20048;-74
2022/10/30 00:54:52;;;;;;;12.68;4.63;;;;;;;17.82;90.63;101437.44;2092544;28;20102;-74
2022/10/30 00:56:18;;;;;;;15.57;4.75;;;;;;;17.79;91.26;101445.44;2087537;28;20479;-75
2022/10/30 00:57:41;;;;;;;13.15;4.45;;;;;;;17.78;91.59;101447.25;2097367;28;20144;-74
2022/10/30 00:59:08;;;;;;;12.90;4.25;;;;;;;17.75;91.73;101439.22;2088756;28;20044;-74
2022/10/30 01:00:31;;;;;;;12.30;4.65;;;;;;;17.71;92.14;101440.16;2094271;28;20075;-74
2022/10/30 01:01:53;;;;;;;12.15;4.60;;;;;;;17.69;92.54;101439.25;2080654;28;20575;-74
2022/10/30 01:03:17;;;;;;;14.48;4.13;;;;;;;17.66;92.55;101433.91;2083472;28;20087;-74
2022/10/30 01:04:40;;;;;;;14.75;4.65;;;;;;;17.67;92.35;101432.13;2094525;28;20044;-74
2022/10/30 01:06:09;;;;;;;11.82;4.53;;;;;;;17.65;92.53;101437.50;2085069;28;20037;-75
2022/10/30 01:07:30;;;;;;;11.80;4.63;;;;;;;17.64;92.66;101429.47;2093064;28;20553;-74
2022/10/30 01:08:55;;;;;;;13.63;4.65;;;;;;;17.64;92.59;101432.16;2085943;28;20076;-75
2022/10/30 01:10:18;;;;;;;19.60;4.53;;;;;;;17.63;92.56;101433.94;2085666;28;20398;-73
2022/10/30 01:11:39;;;;;;;16.90;4.68;;;;;;;17.61;92.40;101432.13;2083664;28;20048;-74
2022/10/30 01:13:02;;;;;;;14.07;4.85;;;;;;;17.57;92.57;101430.34;2082859;28;20610;-74
2022/10/30 01:14:24;;;;;;;12.23;4.55;;;;;;;17.52;92.72;101427.69;2083362;28;20061;-74
2022/10/30 01:16:00;;;;;;;13.55;4.20;;;;;;;17.47;92.81;101425.00;2089380;28;20045;-74
2022/10/30 01:17:49;;;;;;;14.45;4.25;;;;;;;17.45;92.79;101421.47;2095107;28;20103;-74
2022/10/30 01:19:23;;;;;;;11.40;4.40;;;;;;;17.42;93.02;101425.91;2088230;28;20049;-74
2022/10/30 01:21:16;;;;;;;10.80;4.05;;;;;;;17.38;93.02;101419.72;2094288;28;20409;-75
2022/10/30 01:22:58;;;;;;;11.07;4.30;;;;;;;17.35;93.31;101422.38;2088169;28;20090;-75
2022/10/30 01:24:35;;;;;;;9.70;3.72;;;;;;;17.33;93.35;101428.59;2096544;28;20061;-74
2022/10/30 01:26:07;;;;;;;15.27;4.30;;;;;;;17.31;93.47;101425.94;2083482;28;20053;-75
2022/10/30 01:27:40;;;;;;;12.30;4.82;;;;;;;17.33;93.39;101425.91;2087384;28;20105;-75
2022/10/30 01:29:21;;;;;;;13.95;4.75;;;;;;;17.29;93.44;101419.72;2086859;28;20665;-75
2022/10/30 01:31:01;;;;;;;12.60;5.18;;;;;;;17.27;93.63;101423.25;2087797;28;20076;-75
2022/10/30 01:32:40;;;;;;;11.45;4.50;;;;;;;17.23;93.74;101424.16;2096360;28;20714;-75
2022/10/30 01:34:17;;;;;;;12.02;4.63;;;;;;;17.20;93.76;101425.06;2104883;28;20040;-74
2022/10/30 01:35:46;;;;;;;13.88;3.80;;;;;;;17.17;93.85;101418.84;2087359;28;20068;-74
2022/10/30 01:37:16;;;;;;;11.00;4.15;;;;;;;17.15;93.94;101424.16;2087064;28;20488;-74
2022/10/30 01:38:47;;;;;;;14.27;4.22;;;;;;;17.16;93.93;101420.63;2085461;28;20049;-75
2022/10/30 01:40:13;;;;;;;14.18;4.70;;;;;;;17.17;93.95;101427.75;2092575;28;20056;-75
2022/10/30 01:41:34;;;;;;;8.52;4.45;;;;;;;17.17;93.99;101425.06;2077673;28;20161;-74
2022/10/30 01:42:58;;;;;;;16.77;4.95;;;;;;;17.17;93.84;101422.41;2083847;28;20045;-75
2022/10/30 01:44:33;;;;;;;10.98;4.28;;;;;;;17.18;93.61;101417.97;2095268;28;20048;-75
2022/10/30 01:46:11;;;;;;;13.48;4.05;;;;;;;17.19;93.59;101417.06;2094325;28;20173;-75
2022/10/30 01:47:43;;;;;;;12.55;4.40;;;;;;;17.16;93.69;101415.28;2071759;28;20041;-74
2022/10/30 01:49:33;;;;;;;10.82;4.40;;;;;;;17.18;93.81;101418.84;2085817;28;20045;-75
2022/10/30 01:51:03;;;;;;;10.75;3.60;;;;;;;17.20;93.71;101409.03;2088170;28;20075;-75
2022/10/30 01:52:33;;;;;;;10.05;4.28;;;;;;;17.22;93.60;101417.94;2093508;28;20056;-74
2022/10/30 01:54:03;;;;;;;11.73;4.60;;;;;;;17.21;93.51;101421.50;2096787;28;20051;-75
2022/10/30 01:55:36;;;;;;;15.02;4.18;;;;;;;17.19;93.53;101403.72;2094864;28;20072;-75
2022/10/30 01:57:02;;;;;;;;;;;;;;;17.12;93.77;101417.09;2088840;28;20049;-75
2022/10/30 01:58:31;;;;;;;12.85;4.82;;;;;;;17.10;94.02;101410.84;2085859;28;19925;-75
2022/10/30 01:59:59;;;;;;;22.42;5.05;;;;;;;17.08;94.34;101409.94;2084330;28;20508;-75
2022/10/30 02:01:22;;;;;;;11.35;4.00;;;;;;;17.08;94.50;101409.94;2082207;28;20076;-75
2022/10/30 02:02:44;;;;;;;12.85;4.20;;;;;;;17.11;94.59;101411.75;2085683;28;20041;-74
2022/10/30 02:04:09;;;;;;;9.68;4.22;;;;;;;17.12;94.46;101411.75;2085898;28;20452;-75
2022/10/30 02:05:38;;;;;;;10.02;4.03;;;;;;;17.13;94.31;101409.97;2071922;28;20045;-74
2022/10/30 02:07:01;;;;;;;11.20;4.03;;;;;;;17.13;94.19;101409.97;2085747;28;20099;-75
2022/10/30 02:08:22;;;;;;;10.88;4.15;;;;;;;17.13;94.24;101412.63;2085832;28;20052;-74
2022/10/30 02:09:48;;;;;;;10.05;3.83;;;;;;;17.12;94.30;101414.41;2090721;28;20044;-74
2022/10/30 02:11:10;;;;;;;10.00;3.90;;;;;;;17.10;94.56;101409.94;2085136;28;20562;-74
2022/10/30 02:12:36;;;;;;;17.75;4.75;;;;;;;17.09;94.63;101411.72;2091705;28;20133;-74
2022/10/30 02:14:01;;;;;;;9.40;4.38;;;;;;;17.10;94.82;101404.63;2084900;28;20037;-74
2022/10/30 02:15:25;;;;;;;11.77;4.30;;;;;;;17.08;95.00;101409.94;2091856;28;20480;-74
2022/10/30 02:16:51;;;;;;;17.00;5.05;;;;;;;17.07;95.06;101407.28;2085529;28;20086;-74
2022/10/30 02:18:15;;;;;;;13.82;4.75;;;;;;;17.07;95.04;101408.16;2094573;28;20574;-74
2022/10/30 02:19:37;;;;;;;8.98;3.92;;;;;;;17.08;95.34;101417.06;2090560;28;20048;-74
2022/10/30 02:21:01;;;;;;;10.85;4.53;;;;;;;17.08;95.46;101409.06;2090839;28;20405;-74
2022/10/30 02:22:24;;;;;;;14.85;4.78;;;;;;;17.05;95.60;101404.63;2080025;28;20080;-75
2022/10/30 02:23:45;;;;;;;10.30;3.78;;;;;;;17.06;95.91;101408.19;2085272;28;20067;-74
2022/10/30 02:25:09;;;;;;;14.00;4.95;;;;;;;17.04;95.98;101401.97;2096327;28;20079;-74
2022/10/30 02:26:30;;;;;;;12.20;4.65;;;;;;;17.02;96.04;101404.63;2085303;28;20135;-75
2022/10/30 02:27:53;;;;;;;9.52;4.28;;;;;;;16.99;96.23;101415.31;2084488;28;20396;-74
2022/10/30 02:29:16;;;;;;;13.50;4.78;;;;;;;16.97;96.31;101409.06;2091509;28;20151;-75
2022/10/30 02:30:38;;;;;;;14.82;4.20;;;;;;;16.94;96.57;101400.16;2081822;28;20149;-74
2022/10/30 02:32:01;;;;;;;14.38;4.20;;;;;;;16.91;96.85;101406.41;2093409;28;20056;-75
2022/10/30 02:33:23;;;;;;;10.73;4.50;;;;;;;16.90;97.27;101409.06;2088423;28;20131;-75
2022/10/30 02:34:45;;;;;;;12.32;4.93;;;;;;;16.87;97.51;101404.59;2090367;28;20052;-74
2022/10/30 02:36:10;;;;;;;14.25;4.47;;;;;;;16.87;97.77;101403.75;2085369;28;20044;-74
2022/10/30 02:37:34;;;;;;;13.23;5.05;;;;;;;16.86;97.92;101410.84;2074930;28;20045;-74
2022/10/30 02:38:56;;;;;;;15.50;5.57;;;;;;;16.84;98.04;101409.97;2088013;28;20048;-74
2022/10/30 02:40:18;;;;;;;8.38;3.85;;;;;;;16.83;98.05;101404.63;2085379;28;20060;-74
2022/10/30 02:41:40;;;;;;;9.80;4.40;;;;;;;16.83;98.22;101405.50;2093970;28;20578;-74
2022/10/30 02:43:03;;;;;;;11.80;4.95;;;;;;;16.84;98.33;101414.41;2077279;28;20148;-74
2022/10/30 02:44:26;;;;;;;10.50;4.38;;;;;;;16.84;98.35;101409.97;2087462;28;20041;-74
2022/10/30 02:45:49;;;;;;;10.15;6.03;;;;;;;16.83;98.37;101402.84;2077261;28;20601;-74
2022/10/30 02:47:12;;;;;;;10.20;4.75;;;;;;;16.78;98.50;101403.72;2081161;28;20044;-74
2022/10/30 02:48:34;;;;;;;11.00;5.10;;;;;;;16.72;98.97;101401.97;2074991;28;20425;-74
2022/10/30 02:49:56;;;;;;;;;;;;;;;16.65;99.31;101411.72;2091768;28;20036;-74
2022/10/30 02:51:19;;;;;;;12.30;5.10;;;;;;;16.67;99.59;101414.41;2079927;28;20023;-74
2022/10/30 02:52:42;;;;;;;11.18;4.88;;;;;;;16.67;99.50;101401.94;2074897;28;20057;-74
2022/10/30 02:54:04;;;;;;;12.13;5.50;;;;;;;16.70;99.83;101404.63;2083201;28;20130;-74
2022/10/30 02:55:25;;;;;;;14.13;5.68;;;;;;;16.71;100.00;101406.41;2088089;28;20049;-75
2022/10/30 02:56:49;;;;;;;;;;;;;;;16.66;100.00;101405.50;2077988;28;20044;-74
2022/10/30 02:58:11;;;;;;;;;;;;;;;16.63;100.00;101401.94;2082590;28;20016;-74
2022/10/30 02:59:35;;;;;;;13.57;5.30;;;;;;;16.67;100.00;101409.06;2098796;28;20022;-74
2022/10/30 03:00:56;;;;;;;9.18;5.18;;;;;;;16.72;100.00;101400.19;2090711;28;20044;-74
2022/10/30 03:02:19;;;;;;;15.75;5.18;;;;;;;16.77;100.00;101402.84;2084756;28;20136;-74
2022/10/30 03:03:41;;;;;;;11.77;4.50;;;;;;;16.82;100.00;101402.84;2081578;28;20496;-75
2022/10/30 03:05:03;;;;;;;12.52;5.00;;;;;;;16.88;100.00;101402.84;2085620;28;20418;-74
2022/10/30 03:06:27;;;;;;;9.88;4.50;;;;;;;16.93;100.00;101409.97;2085435;28;20132;-74
2022/10/30 03:07:50;;;;;;;11.48;4.53;;;;;;;16.97;100.00;101398.41;2082664;28;20539;-74
2022/10/30 03:09:13;;;;;;;11.65;4.60;;;;;;;17.04;100.00;101399.28;2083022;28;20052;-74
2022/10/30 03:10:36;;;;;;;15.77;4.72;;;;;;;17.07;99.95;101407.28;2085418;28;20087;-74
2022/10/30 03:11:58;;;;;;;13.23;4.95;;;;;;;17.06;99.87;101405.53;2093719;28;20041;-74
2022/10/30 03:13:20;;;;;;;18.17;4.40;;;;;;;17.05;99.84;101401.97;2079705;28;20061;-74
2022/10/30 03:14:43;;;;;;;10.32;4.35;;;;;;;17.05;99.83;101403.75;2091201;28;20040;-74
2022/10/30 03:16:07;;;;;;;11.65;4.57;;;;;;;17.04;100.00;101404.63;2087749;28;20041;-74
2022/10/30 03:17:30;;;;;;;12.35;4.78;;;;;;;17.01;100.00;101399.28;2093370;28;20191;-74
2022/10/30 03:18:52;;;;;;;14.18;4.40;;;;;;;16.98;100.00;101405.53;2101618;28;20143;-74
2022/10/30 03:20:14;;;;;;;14.38;4.63;;;;;;;16.96;100.00;101398.41;2087424;28;20166;-74
2022/10/30 03:21:37;;;;;;;12.38;4.50;;;;;;;16.97;100.00;101402.84;2093426;28;20072;-74
2022/10/30 03:23:00;;;;;;;13.70;4.65;;;;;;;16.99;100.00;101406.41;2088045;28;20142;-74
2022/10/30 03:24:22;;;;;;;15.25;5.47;;;;;;;17.00;100.00;101405.53;2090807;28;20053;-74
2022/10/30 03:25:44;;;;;;;15.35;4.28;;;;;;;17.02;100.00;101403.72;2084677;28;20981;-74
2022/10/30 03:27:07;;;;;;;11.25;4.43;;;;;;;17.03;100.00;101397.50;2094930;28;20547;-74
2022/10/30 03:28:29;;;;;;;13.35;4.60;;;;;;;17.03;100.00;101403.72;2095100;28;20163;-74
2022/10/30 03:29:53;;;;;;;9.15;4.85;;;;;;;17.04;100.00;101404.63;2089744;28;20644;-74
2022/10/30 03:31:17;;;;;;;15.23;4.68;;;;;;;17.02;100.00;101403.72;2089310;28;20488;-74
2022/10/30 03:32:40;;;;;;;13.05;4.85;;;;;;;16.99;100.00;101398.41;2086886;28;20138;-74
2022/10/30 03:34:03;;;;;;;10.55;4.53;;;;;;;16.97;100.00;101402.84;2083577;28;20080;-74
2022/10/30 03:35:25;;;;;;;12.85;4.85;;;;;;;16.89;100.00;101402.84;2092479;28;20512;-74
2022/10/30 03:36:48;;;;;;;12.48;4.53;;;;;;;16.85;100.00;101405.53;2086369;28;20075;-75
2022/10/30 03:38:11;;;;;;;11.65;4.55;;;;;;;16.83;100.00;101405.50;2084085;28;20590;-76
2022/10/30 03:39:33;;;;;;;11.35;4.50;;;;;;;16.84;100.00;101407.28;2094990;28;20036;-75
2022/10/30 03:40:58;;;;;;;12.27;4.57;;;;;;;16.87;100.00;101414.41;2084139;28;20075;-75
2022/10/30 03:42:20;;;;;;;14.93;5.20;;;;;;;16.90;100.00;101409.06;2085106;28;20045;-75
2022/10/30 03:43:45;;;;;;;10.80;4.22;;;;;;;16.91;100.00;101414.41;2084642;28;20699;-75
2022/10/30 03:45:08;;;;;;;11.63;4.88;;;;;;;16.88;100.00;101410.84;2092174;28;20049;-75
2022/10/30 03:46:30;;;;;;;10.77;3.88;;;;;;;16.85;100.00;101403.75;2078800;28;20053;-75
2022/10/30 03:48:06;;;;;;;14.30;5.45;;;;;;;16.82;100.00;101410.84;2089616;28;20045;-75
2022/10/30 03:49:29;;;;;;;11.45;4.70;;;;;;;16.80;100.00;101409.97;2086712;28;20501;-76
2022/10/30 03:50:52;;;;;;;12.80;4.90;;;;;;;16.79;100.00;101411.75;2084511;28;20060;-75
2022/10/30 03:52:17;;;;;;;12.45;5.00;;;;;;;16.80;100.00;101408.19;2094595;28;20051;-75
2022/10/30 03:53:38;;;;;;;14.23;4.63;;;;;;;16.79;100.00;101408.19;2086376;28;20109;-74
2022/10/30 03:55:01;;;;;;;9.70;4.85;;;;;;;16.71;100.00;101414.41;2094668;28;20494;-74
2022/10/30 03:56:23;;;;;;;13.35;4.97;;;;;;;16.65;100.00;101405.50;2086538;28;20059;-74
2022/10/30 03:57:49;;;;;;;12.65;5.10;;;;;;;16.58;100.00;101414.34;2087224;28;20118;-75
2022/10/30 03:59:11;;;;;;;13.15;4.78;;;;;;;16.53;100.00;101409.00;2084132;28;20084;-75
2022/10/30 04:00:36;;;;;;;14.30;6.07;;;;;;;16.50;100.00;101400.09;2091376;28;20055;-75
2022/10/30 04:01:58;;;;;;;14.68;5.07;;;;;;;16.48;100.00;101416.09;2081594;28;20060;-75
2022/10/30 04:03:21;;;;;;;12.45;4.82;;;;;;;16.45;100.00;101417.88;2091657;28;20052;-75
2022/10/30 04:04:42;;;;;;;13.43;5.07;;;;;;;16.46;100.00;101417.00;2086799;28;20029;-75
2022/10/30 04:06:05;;;;;;;16.40;5.75;;;;;;;16.47;100.00;101410.78;2088687;28;20488;-75
2022/10/30 04:07:29;;;;;;;15.75;5.32;;;;;;;16.53;100.00;101413.47;2086822;28;20064;-75
2022/10/30 04:08:51;;;;;;;14.05;5.78;;;;;;;16.58;100.00;101417.91;2099112;28;20047;-75
2022/10/30 04:10:14;;;;;;;13.20;5.28;;;;;;;16.63;100.00;101423.25;2080542;28;20041;-75
2022/10/30 04:11:36;;;;;;;15.07;5.57;;;;;;;16.64;100.00;101419.72;2094719;28;20412;-74
2022/10/30 04:13:01;;;;;;;16.58;6.10;;;;;;;16.69;100.00;101420.59;2093809;28;20044;-75
2022/10/30 04:14:24;;;;;;;13.15;5.38;;;;;;;16.70;100.00;101420.63;2086818;28;20051;-75
2022/10/30 04:15:46;;;;;;;13.50;5.18;;;;;;;16.72;100.00;101416.19;2092187;28;20432;-74
2022/10/30 04:17:09;;;;;;;9.88;5.72;;;;;;;16.74;100.00;101414.38;2085230;28;20625;-75
2022/10/30 04:18:31;;;;;;;16.13;8.95;;;;;;;16.77;100.00;101420.63;2086070;28;20045;-74
2022/10/30 04:19:52;;;;;;;15.45;8.07;;;;;;;16.80;100.00;101420.63;2086469;28;20183;-75
2022/10/30 04:21:16;;;;;;;15.75;8.30;;;;;;;16.83;100.00;101423.28;2085730;28;20469;-75
2022/10/30 04:22:39;;;;;;;15.70;11.23;;;;;;;16.84;100.00;101420.63;2097671;28;20162;-75
2022/10/30 04:24:01;;;;;;;23.92;14.32;;;;;;;16.86;100.00;101413.53;2087597;28;20045;-75
2022/10/30 04:25:26;;;;;;;20.45;12.63;;;;;;;16.89;100.00;101418.84;2091013;28;20590;-75
2022/10/30 04:26:48;;;;;;;;;;;;;;;16.88;100.00;101416.16;2081288;28;20049;-75
2022/10/30 04:28:09;;;;;;;;;;;;;;;16.86;100.00;101418.88;2090752;28;19947;-75
2022/10/30 04:29:33;;;;;;;15.13;8.37;;;;;;;16.86;100.00;101416.19;2086458;28;19921;-75
2022/10/30 04:30:56;;;;;;;14.02;6.72;;;;;;;16.87;100.00;101425.09;2086262;28;20302;-75
2022/10/30 04:32:19;;;;;;;13.75;6.90;;;;;;;16.87;100.00;101415.28;2092688;28;20045;-75
2022/10/30 04:33:42;;;;;;;16.90;6.82;;;;;;;16.90;100.00;101428.63;2086308;28;20483;-74
2022/10/30 04:35:05;;;;;;;14.25;6.60;;;;;;;16.93;100.00;101423.31;2084194;28;20529;-74
2022/10/30 04:36:29;;;;;;;;;;;;;;;16.94;100.00;101421.50;2100723;28;20451;-74
2022/10/30 04:37:56;;;;;;;17.67;7.32;;;;;;;16.99;100.00;101422.41;2088637;28;19960;-74
2022/10/30 04:39:19;;;;;;;13.55;6.28;;;;;;;17.01;100.00;101423.28;2100955;28;20048;-74
2022/10/30 04:40:44;;;;;;;16.60;6.28;;;;;;;16.98;100.00;101421.53;2089686;28;20074;-74
2022/10/30 04:42:08;;;;;;;15.15;6.10;;;;;;;16.97;100.00;101421.53;2092335;28;20147;-74
2022/10/30 04:43:30;;;;;;;11.32;5.80;;;;;;;16.99;100.00;101427.75;2078283;28;20045;-74
2022/10/30 04:44:52;;;;;;;13.10;5.75;;;;;;;16.99;100.00;101422.41;2092196;28;20090;-74
2022/10/30 04:46:16;;;;;;;23.10;6.50;;;;;;;17.01;100.00;101425.94;2082885;28;20164;-74
2022/10/30 04:47:37;;;;;;;13.10;5.95;;;;;;;17.03;100.00;101421.50;2080891;28;20547;-74
2022/10/30 04:49:00;;;;;;;15.38;5.25;;;;;;;17.05;100.00;101425.97;2092141;28;20048;-74
2022/10/30 04:50:22;;;;;;;12.82;5.30;;;;;;;17.06;100.00;101429.53;2080512;28;20096;-74
2022/10/30 04:51:45;;;;;;;10.18;4.60;;;;;;;17.02;100.00;101419.72;2075530;28;20084;-74
2022/10/30 04:53:14;;;;;;;12.23;5.28;;;;;;;17.00;100.00;101425.06;2075812;28;20095;-74
2022/10/30 04:54:37;;;;;;;12.77;5.03;;;;;;;16.96;100.00;101428.63;2085336;28;20068;-74
2022/10/30 04:55:59;;;;;;;12.52;5.43;;;;;;;16.93;100.00;101425.09;2086519;28;20049;-74
2022/10/30 04:57:23;;;;;;;13.30;5.05;;;;;;;16.80;100.00;101418.88;2088999;28;20059;-74
2022/10/30 04:58:46;;;;;;;13.77;4.50;;;;;;;16.71;100.00;101430.41;2088374;28;20138;-74
2022/10/30 05:00:09;;;;;;;10.25;5.03;;;;;;;16.71;100.00;101432.16;2093933;28;20036;-75
2022/10/30 05:01:33;;;;;;;12.48;4.50;;;;;;;16.73;100.00;101431.31;2078612;28;20812;-75
2022/10/30 05:03:00;;;;;;;15.15;5.85;;;;;;;16.79;100.00;101427.75;2085172;28;20045;-75
2022/10/30 05:04:21;;;;;;;15.45;5.60;;;;;;;16.83;100.00;101429.50;2086232;28;20049;-74
2022/10/30 05:05:44;;;;;;;16.48;5.05;;;;;;;16.87;100.00;101425.09;2082173;28;20048;-75
2022/10/30 05:07:06;;;;;;;15.63;6.25;;;;;;;16.89;100.00;101433.97;2091933;28;20079;-75
2022/10/30 05:08:30;;;;;;;13.25;5.70;;;;;;;16.91;100.00;101434.84;2092179;28;20369;-75
2022/10/30 05:09:53;;;;;;;15.73;5.55;;;;;;;16.93;100.00;101427.75;2086367;28;20107;-75
2022/10/30 05:11:17;;;;;;;13.95;5.78;;;;;;;16.93;100.00;101425.09;2077212;28;20133;-75
2022/10/30 05:12:40;;;;;;;14.63;5.38;;;;;;;16.95;100.00;101432.19;2081406;28;20489;-75
2022/10/30 05:14:03;;;;;;;14.40;5.90;;;;;;;17.00;100.00;101433.06;2091726;28;20040;-74
2022/10/30 05:15:26;;;;;;;13.20;5.40;;;;;;;17.05;100.00;101431.31;2088264;28;20776;-75
2022/10/30 05:16:47;;;;;;;11.93;4.63;;;;;;;17.02;100.00;101431.28;2082570;28;20126;-75
2022/10/30 05:18:10;;;;;;;8.95;5.00;;;;;;;16.99;100.00;101430.41;2091126;28;20452;-74
2022/10/30 05:19:31;;;;;;;15.73;5.50;;;;;;;17.03;100.00;101432.19;2084922;28;20037;-75
2022/10/30 05:20:54;;;;;;;12.80;5.13;;;;;;;17.10;100.00;101426.84;2083373;28;20497;-75
2022/10/30 05:22:17;;;;;;;15.75;6.20;;;;;;;17.15;100.00;101437.50;2084037;28;20755;-75
2022/10/30 05:23:41;;;;;;;14.95;5.13;;;;;;;17.16;100.00;101436.63;2090787;28;20485;-75
2022/10/30 05:25:04;;;;;;;10.50;4.88;;;;;;;17.09;100.00;101433.06;2085790;28;20056;-75
2022/10/30 05:26:28;;;;;;;16.92;5.65;;;;;;;17.02;100.00;101441.06;2091357;28;20555;-75
2022/10/30 05:27:50;;;;;;;14.65;6.38;;;;;;;17.02;100.00;101435.75;2087447;28;20083;-74
2022/10/30 05:29:14;;;;;;;14.55;6.13;;;;;;;17.05;100.00;101436.66;2091082;28;20067;-75
2022/10/30 05:30:36;;;;;;;14.75;5.65;;;;;;;17.07;100.00;101436.63;2090340;28;20059;-74
2022/10/30 05:32:01;;;;;;;11.73;5.38;;;;;;;17.09;100.00;101441.06;2086266;28;20164;-74
2022/10/30 05:33:52;;;;;;;10.25;5.65;;;;;;;17.14;100.00;101447.28;2102466;28;20121;-75
2022/10/30 05:35:16;;;;;;;13.52;4.40;;;;;;;17.12;100.00;101443.75;2088403;28;20150;-75
2022/10/30 05:36:38;;;;;;;12.18;4.75;;;;;;;17.07;100.00;101444.63;2083504;28;20045;-74
2022/10/30 05:38:02;;;;;;;13.57;5.43;;;;;;;17.09;100.00;101443.75;2090882;28;20139;-75
2022/10/30 05:39:25;;;;;;;15.57;6.05;;;;;;;17.16;100.00;101436.63;2086323;28;20048;-75
2022/10/30 05:40:47;;;;;;;14.90;6.20;;;;;;;17.25;100.00;101443.75;2085044;28;20052;-74
2022/10/30 05:42:10;;;;;;;18.58;5.60;;;;;;;17.31;100.00;101444.63;2083363;28;20040;-74
2022/10/30 05:43:38;;;;;;;15.40;5.32;;;;;;;17.40;100.00;101449.94;2092075;28;20539;-75
2022/10/30 05:45:00;;;;;;;13.32;5.00;;;;;;;17.51;100.00;101449.94;2085860;28;20049;-74
2022/10/30 05:46:24;;;;;;;13.55;4.93;;;;;;;17.62;100.00;101450.84;2077747;28;20068;-75
2022/10/30 05:47:55;;;;;;;9.30;5.05;;;;;;;17.68;100.00;101456.16;2090113;28;20036;-75
2022/10/30 05:49:18;;;;;;;11.77;4.57;;;;;;;17.79;100.00;101459.69;2095133;28;20056;-74
2022/10/30 05:50:39;;;;;;;14.95;4.82;;;;;;;17.92;100.00;101461.41;2085715;28;20037;-74
2022/10/30 05:52:10;;;;;;;19.45;6.05;;;;;;;18.01;100.00;101459.63;2086187;28;20068;-75
2022/10/30 05:53:33;;;;;;;13.77;6.03;;;;;;;18.07;100.00;101455.13;2083263;28;20057;-75
2022/10/30 05:54:59;;;;;;;14.40;5.28;;;;;;;18.15;100.00;101463.13;2085281;28;20235;-74
2022/10/30 05:56:42;;;;;;;18.08;6.28;;;;;;;18.22;100.00;101460.44;2096802;28;20140;-75
2022/10/30 05:58:06;;;;;;;15.20;5.82;;;;;;;18.29;100.00;101450.59;2084833;28;20516;-74
2022/10/30 05:59:28;;;;;;;16.95;6.15;;;;;;;18.29;100.00;101450.59;2086073;28;20048;-75
2022/10/30 06:00:51;;;;;;;13.75;5.97;;;;;;;18.28;100.00;101447.03;2085317;28;20043;-74
2022/10/30 06:02:25;;;;;;;14.73;5.72;;;;;;;18.30;100.00;101452.38;2087293;28;20568;-74
2022/10/30 06:03:48;;;;;;;15.23;6.30;;;;;;;18.31;100.00;101448.81;2093927;28;20053;-75
2022/10/30 06:05:10;;;;;;;16.13;5.40;;;;;;;18.31;100.00;101449.69;2080006;28;20802;-75
2022/10/30 06:06:33;;;;;;;16.40;5.88;;;;;;;18.30;100.00;101450.59;2085165;28;20127;-75
2022/10/30 06:07:56;;;;;;;19.17;6.18;;;;;;;18.30;100.00;101442.56;2085595;28;20484;-74
2022/10/30 06:09:19;;;;;;;17.23;6.20;;;;;;;18.31;100.00;101447.00;2077034;28;20052;-74
2022/10/30 06:10:55;;;;;;;10.95;4.88;;;;;;;18.36;100.00;101443.44;2093366;28;20575;-75
2022/10/30 06:12:22;;;;;;;12.70;4.85;;;;;;;18.41;100.00;101447.84;2086607;28;20049;-75
2022/10/30 06:14:00;;;;;;;17.38;4.30;;;;;;;18.50;100.00;101450.50;2087640;28;20144;-74
2022/10/30 06:15:41;;;;;;;13.00;3.80;;;;;;;18.62;100.00;101444.19;2104352;28;20571;-75
2022/10/30 06:17:04;;;;;;;14.02;4.32;;;;;;;18.69;100.00;101443.28;2087266;28;20045;-74
2022/10/30 06:18:29;;;;;;;15.25;4.88;;;;;;;18.73;100.00;101444.13;2100244;28;20504;-75
2022/10/30 06:20:01;;;;;;;13.45;4.63;;;;;;;18.78;100.00;101437.84;2086081;28;20454;-74
2022/10/30 06:21:46;;;;;;;13.20;4.93;;;;;;;18.91;100.00;101443.97;2082282;28;20060;-74
2022/10/30 06:23:27;;;;;;;18.27;6.10;;;;;;;19.02;99.76;101440.34;2096252;28;20079;-74
2022/10/30 06:25:22;;;;;;;14.38;4.93;;;;;;;19.15;99.91;101440.25;2073414;28;20242;-75
2022/10/30 06:27:05;;;;;;;19.85;5.72;;;;;;;19.20;99.69;101446.44;2087342;28;20041;-75
2022/10/30 06:28:28;;;;;;;16.00;5.43;;;;;;;19.27;99.18;101438.34;2083076;28;20059;-75
2022/10/30 06:29:49;;;;;;;16.25;5.65;;;;;;;19.31;98.88;101447.22;2082760;28;20425;-75